createdAt,value
2024-02-03T00:01:42.729Z,102648.13
2024-02-03T00:04:12.290Z,102640.03
2024-02-03T00:06:42.706Z,102631.50
2024-02-03T00:09:13.032Z,102636.03
2024-02-03T00:11:43.329Z,102637.19
2024-02-03T00:14:13.760Z,102650.31
2024-02-03T00:16:43.736Z,102645.44
2024-02-03T00:19:14.350Z,102639.72
2024-02-03T00:21:44.844Z,102634.34
2024-02-03T00:24:14.708Z,102642.41
2024-02-03T00:26:44.154Z,102636.69
2024-02-03T00:29:13.570Z,102638.38
2024-02-03T00:31:46.800Z,102622.09
2024-02-03T00:34:16.397Z,102634.34
2024-02-03T00:36:54.148Z,102628.13
2024-02-03T00:39:23.549Z,102619.19
2024-02-03T00:41:53.776Z,102621.91
2024-02-03T00:44:23.174Z,102620.41
2024-02-03T00:46:52.684Z,102622.59
2024-02-03T00:49:22.206Z,102615.19
2024-02-03T00:51:51.837Z,102618.56
2024-02-03T00:54:21.152Z,102602.56
2024-02-03T00:56:50.534Z,102609.63
2024-02-03T00:59:19.870Z,102603.75
2024-02-03T01:01:49.393Z,102602.56
2024-02-03T01:04:19.095Z,102602.22
2024-02-03T01:06:52.679Z,102607.09
2024-02-03T01:09:22.407Z,102610.47
2024-02-03T01:11:52.044Z,102607.94
2024-02-03T01:14:28.961Z,102599.03
2024-02-03T01:16:59.008Z,102600.22
2024-02-03T01:19:28.384Z,102610.00
2024-02-03T01:21:58.631Z,102605.78
2024-02-03T01:24:30.135Z,102612.16
2024-02-03T01:26:59.565Z,102605.44
2024-02-03T01:29:29.835Z,102609.13
2024-02-03T01:31:59.312Z,102605.78
2024-02-03T01:34:28.935Z,102602.06
2024-02-03T01:36:58.372Z,102595.00
2024-02-03T01:39:27.748Z,102586.44
2024-02-03T01:41:57.220Z,102590.63
2024-02-03T01:44:32.921Z,102586.94
2024-02-03T01:47:02.335Z,102600.22
2024-02-03T01:49:34.345Z,102591.47
2024-02-03T01:52:03.949Z,102588.44
2024-02-03T01:54:36.243Z,102595.19
2024-02-03T01:57:08.326Z,102591.47
2024-02-03T01:59:38.416Z,102601.72
2024-02-03T02:02:07.942Z,102596.34
2024-02-03T02:04:37.690Z,102588.28
2024-02-03T02:07:07.180Z,102592.66
2024-02-03T02:09:36.691Z,102588.44
2024-02-03T02:12:06.460Z,102593.50
2024-02-03T02:14:35.907Z,102587.59
2024-02-03T02:17:05.383Z,102587.94
2024-02-03T02:19:35.165Z,102574.16
2024-02-03T02:22:04.582Z,102583.22
2024-02-03T02:24:34.120Z,102577.00
2024-02-03T02:27:03.711Z,102573.13
2024-02-03T02:29:33.386Z,102570.78
2024-02-03T02:32:03.207Z,102577.34
2024-02-03T02:34:33.901Z,102580.22
2024-02-03T02:37:03.464Z,102573.13
2024-02-03T02:39:33.101Z,102576.19
2024-02-03T02:42:02.625Z,102567.09
2024-02-03T02:44:32.167Z,102566.94
2024-02-03T02:47:02.088Z,102559.72
2024-02-03T02:49:32.135Z,102555.66
2024-02-03T02:52:04.596Z,102557.19
2024-02-03T02:54:35.214Z,102563.41
2024-02-03T02:57:05.652Z,102556.00
2024-02-03T02:59:35.228Z,102564.09
2024-02-03T03:02:04.751Z,102563.25
2024-02-03T03:04:35.781Z,102573.84
2024-02-03T03:07:05.503Z,102563.06
2024-02-03T03:09:36.176Z,102554.84
2024-02-03T03:12:05.849Z,102564.75
2024-02-03T03:14:35.277Z,102560.22
2024-02-03T03:17:04.662Z,102548.28
2024-02-03T03:19:39.015Z,102558.03
2024-02-03T03:22:08.527Z,102551.13
2024-02-03T03:24:37.978Z,102551.66
2024-02-03T03:27:09.052Z,102549.97
2024-02-03T03:29:39.170Z,102537.34
2024-02-03T03:32:08.811Z,102547.09
2024-02-03T03:34:38.803Z,102552.31
2024-02-03T03:37:08.338Z,102564.78
2024-02-03T03:39:38.828Z,102567.47
2024-02-03T03:42:08.399Z,102568.47
2024-02-03T03:44:37.830Z,102552.16
2024-02-03T03:47:07.584Z,102537.03
2024-02-03T03:49:37.036Z,102536.19
2024-02-03T03:52:06.796Z,102534.16
2024-02-03T03:54:36.839Z,102528.28
2024-02-03T03:57:06.950Z,102532.81
2024-02-03T03:59:36.348Z,102553.16
2024-02-03T04:02:07.597Z,102563.44
2024-02-03T04:04:39.851Z,102555.38
2024-02-03T04:07:09.381Z,102557.88
2024-02-03T04:09:39.392Z,102544.59
2024-02-03T04:12:09.085Z,102546.63
2024-02-03T04:14:38.523Z,102555.38
2024-02-03T04:17:07.856Z,102554.00
2024-02-03T04:19:37.526Z,102556.03
2024-02-03T04:22:09.301Z,102563.09
2024-02-03T04:24:38.524Z,102561.09
2024-02-03T04:27:08.509Z,102551.31
2024-02-03T04:29:37.882Z,102546.13
2024-02-03T04:32:07.380Z,102550.16
2024-02-03T04:34:36.903Z,102528.44
2024-02-03T04:37:06.337Z,102538.22
2024-02-03T04:39:36.135Z,102539.38
2024-02-03T04:42:05.680Z,102523.41
2024-02-03T04:44:36.125Z,102541.56
2024-02-03T04:47:05.612Z,102545.94
2024-02-03T04:49:35.026Z,102545.75
2024-02-03T04:52:04.874Z,102540.38
2024-02-03T04:54:34.538Z,102534.47
2024-02-03T04:57:04.484Z,102524.56
2024-02-03T04:59:33.803Z,102533.81
2024-02-03T05:02:03.868Z,102531.63
2024-02-03T05:04:33.379Z,102543.91
2024-02-03T05:07:02.846Z,102547.09
2024-02-03T05:09:32.381Z,102538.19
2024-02-03T05:12:01.814Z,102533.28
2024-02-03T05:14:31.109Z,102524.72
2024-02-03T05:17:01.294Z,102531.78
2024-02-03T05:19:30.874Z,102524.22
2024-02-03T05:22:02.043Z,102516.97
2024-02-03T05:24:31.493Z,102524.72
2024-02-03T05:27:00.951Z,102537.16
2024-02-03T05:29:30.282Z,102536.50
2024-02-03T05:31:59.684Z,102544.41
2024-02-03T05:34:29.182Z,102542.56
2024-02-03T05:36:58.912Z,102544.91
2024-02-03T05:39:28.420Z,102543.56
2024-02-03T05:41:58.784Z,102549.78
2024-02-03T05:44:28.399Z,102543.72
2024-02-03T05:46:58.708Z,102542.72
2024-02-03T05:49:28.189Z,102538.16
2024-02-03T05:51:58.286Z,102542.56
2024-02-03T05:54:30.269Z,102550.63
2024-02-03T05:56:59.710Z,102534.81
2024-02-03T05:59:36.122Z,102542.22
2024-02-03T06:02:10.844Z,102538.16
2024-02-03T06:04:41.102Z,102531.63
2024-02-03T06:07:11.237Z,102532.28
2024-02-03T06:09:40.874Z,102530.25
2024-02-03T06:12:10.912Z,102531.94
2024-02-03T06:14:42.306Z,102533.97
2024-02-03T06:17:11.668Z,102531.44
2024-02-03T06:19:43.880Z,102536.81
2024-02-03T06:22:14.175Z,102539.34
2024-02-03T06:24:44.193Z,102530.59
2024-02-03T06:27:13.645Z,102535.81
2024-02-03T06:29:42.985Z,102525.72
2024-02-03T06:32:12.336Z,102529.41
2024-02-03T06:34:41.842Z,102530.25
2024-02-03T06:37:11.575Z,102534.97
2024-02-03T06:39:41.263Z,102535.97
2024-02-03T06:42:10.985Z,102542.38
2024-02-03T06:44:40.366Z,102539.19
2024-02-03T06:47:09.693Z,102540.88
2024-02-03T06:49:39.094Z,102533.78
2024-02-03T06:52:08.518Z,102524.88
2024-02-03T06:54:37.872Z,102518.81
2024-02-03T06:57:07.959Z,102521.84
2024-02-03T06:59:37.618Z,102524.53
2024-02-03T07:02:06.989Z,102538.84
2024-02-03T07:04:37.381Z,102527.91
2024-02-03T07:07:07.756Z,102535.66
2024-02-03T07:09:37.147Z,102534.13
2024-02-03T07:12:08.399Z,102539.53
2024-02-03T07:14:38.521Z,102538.16
2024-02-03T07:17:07.894Z,102545.75
2024-02-03T07:19:37.737Z,102540.84
2024-02-03T07:22:08.028Z,102546.75
2024-02-03T07:24:48.670Z,102548.28
2024-02-03T07:27:18.822Z,102557.34
2024-02-03T07:29:48.163Z,102557.69
2024-02-03T07:32:17.483Z,102559.72
2024-02-03T07:34:47.178Z,102560.72
2024-02-03T07:37:16.627Z,102561.91
2024-02-03T07:39:49.260Z,102567.28
2024-02-03T07:42:19.085Z,102559.53
2024-02-03T07:44:48.920Z,102562.25
2024-02-03T07:47:18.297Z,102557.34
2024-02-03T07:49:47.874Z,102566.09
2024-02-03T07:52:17.282Z,102558.69
2024-02-03T07:54:46.675Z,102565.44
2024-02-03T07:57:16.156Z,102560.38
2024-02-03T07:59:45.497Z,102564.44
2024-02-03T08:02:14.850Z,102554.50
2024-02-03T08:04:45.185Z,102553.81
2024-02-03T08:07:14.634Z,102564.59
2024-02-03T08:09:45.928Z,102557.00
2024-02-03T08:12:15.368Z,102566.47
2024-02-03T08:14:44.855Z,102566.78
2024-02-03T08:17:14.247Z,102562.94
2024-02-03T08:19:43.725Z,102552.00
2024-02-03T08:22:13.184Z,102559.06
2024-02-03T08:24:42.953Z,102559.06
2024-02-03T08:27:12.651Z,102568.47
2024-02-03T08:29:42.110Z,102562.09
2024-02-03T08:32:11.485Z,102563.94
2024-02-03T08:35:17.891Z,102565.78
2024-02-03T08:37:37.766Z,102571.13
2024-02-03T08:40:08.092Z,102569.09
2024-02-03T08:42:40.821Z,102568.41
2024-02-03T08:45:10.525Z,102553.59
2024-02-03T08:47:40.878Z,102556.09
2024-02-03T08:50:10.993Z,102562.84
2024-02-03T08:52:42.178Z,102557.59
2024-02-03T08:55:13.882Z,102552.19
2024-02-03T08:57:43.294Z,102552.69
2024-02-03T09:00:13.388Z,102552.53
2024-02-03T09:02:42.738Z,102553.19
2024-02-03T09:05:12.255Z,102551.34
2024-02-03T09:07:41.711Z,102553.66
2024-02-03T09:10:18.954Z,102550.44
2024-02-03T09:12:48.607Z,102558.13
2024-02-03T09:15:18.098Z,102560.19
2024-02-03T09:17:47.605Z,102572.63
2024-02-03T09:20:17.208Z,102562.69
2024-02-03T09:22:47.323Z,102581.88
2024-02-03T09:25:16.740Z,102572.47
2024-02-03T09:27:46.148Z,102563.50
2024-02-03T09:30:15.723Z,102571.41
2024-02-03T09:32:45.371Z,102566.00
2024-02-03T09:35:14.844Z,102577.44
2024-02-03T09:40:23.207Z,102571.53
2024-02-03T09:42:53.470Z,102575.59
2024-02-03T09:45:27.741Z,102580.63
2024-02-03T09:47:57.641Z,102577.28
2024-02-03T09:50:27.168Z,102587.22
2024-02-03T09:52:58.822Z,102586.16
2024-02-03T09:55:28.199Z,102583.91
2024-02-03T09:57:57.927Z,102585.09
2024-02-03T10:00:28.496Z,102585.59
2024-02-03T10:02:57.922Z,102578.16
2024-02-03T10:05:32.924Z,102581.44
2024-02-03T10:08:09.755Z,102576.72
2024-02-03T10:13:17.310Z,102582.72
2024-02-03T10:15:46.642Z,102577.97
2024-02-03T10:18:16.105Z,102586.38
2024-02-03T10:20:45.587Z,102579.47
2024-02-03T10:23:14.954Z,102577.81
2024-02-03T10:25:46.210Z,102590.75
2024-02-03T10:28:19.568Z,102586.06
2024-02-03T10:30:49.009Z,102588.47
2024-02-03T10:33:18.555Z,102586.78
2024-02-03T10:35:48.308Z,102590.03
2024-02-03T10:38:17.734Z,102591.88
2024-02-03T10:40:48.306Z,102593.56
2024-02-03T10:43:27.210Z,102580.06
2024-02-03T10:46:03.043Z,102588.97
2024-02-03T10:48:38.326Z,102594.69
2024-02-03T10:51:25.152Z,102584.75
2024-02-03T10:54:00.765Z,102584.56
2024-02-03T10:56:33.597Z,102575.81
2024-02-03T10:59:07.152Z,102584.94
2024-02-03T11:01:39.758Z,102586.25
2024-02-03T11:04:09.204Z,102588.66
2024-02-03T11:06:40.438Z,102589.00
2024-02-03T11:09:19.327Z,102587.63
2024-02-03T11:12:02.026Z,102591.69
2024-02-03T11:14:35.073Z,102592.03
2024-02-03T11:17:33.701Z,102583.59
2024-02-03T11:20:07.953Z,102595.41
2024-02-03T11:22:42.312Z,102575.19
2024-02-03T11:25:14.155Z,102570.81
2024-02-03T11:27:43.883Z,102581.59
2024-02-03T11:30:14.062Z,102560.38
2024-02-03T11:32:44.993Z,102569.00
2024-02-03T11:35:25.787Z,102574.75
2024-02-03T11:38:11.056Z,102574.25
2024-02-03T11:41:05.430Z,102566.66
2024-02-03T11:43:35.063Z,102551.97
2024-02-03T11:46:08.677Z,102542.84
2024-02-03T11:48:38.946Z,102543.88
2024-02-03T11:51:10.041Z,102552.63
2024-02-03T11:53:41.544Z,102537.59
2024-02-03T11:56:10.932Z,102526.09
2024-02-03T11:58:43.590Z,102532.31
2024-02-03T12:01:16.166Z,102535.50
2024-02-03T12:03:45.677Z,102521.88
2024-02-03T12:06:18.534Z,102529.22
2024-02-03T12:08:47.898Z,102535.56
2024-02-03T12:11:17.746Z,102526.78
2024-02-03T12:13:48.986Z,102528.47
2024-02-03T12:16:20.113Z,102527.28
2024-02-03T12:18:49.685Z,102529.44
2024-02-03T12:21:20.365Z,102534.34
2024-02-03T12:23:50.967Z,102531.84
2024-02-03T12:26:21.071Z,102535.69
2024-02-03T12:28:50.644Z,102531.13
2024-02-03T12:31:23.016Z,102531.66
2024-02-03T12:33:52.704Z,102532.19
2024-02-03T12:36:22.971Z,102532.19
2024-02-03T12:38:53.789Z,102534.44
2024-02-03T12:41:34.747Z,102534.91
2024-02-03T12:44:05.690Z,102519.63
2024-02-03T12:46:36.738Z,102529.31
2024-02-03T12:49:08.066Z,102520.66
2024-02-03T12:51:38.029Z,102518.75
2024-02-03T12:54:09.150Z,102511.53
2024-02-03T12:56:41.467Z,102506.16
2024-02-03T12:59:12.940Z,102509.16
2024-02-03T13:01:43.103Z,102514.50
2024-02-03T13:04:13.630Z,102510.78
2024-02-03T13:06:43.091Z,102511.50
2024-02-03T13:09:13.578Z,102518.03
2024-02-03T13:11:42.985Z,102511.81
2024-02-03T13:14:12.667Z,102507.06
2024-02-03T13:16:41.960Z,102509.41
2024-02-03T13:19:14.142Z,102503.66
2024-02-03T13:21:43.585Z,102504.88
2024-02-03T13:24:12.934Z,102506.50
2024-02-03T13:26:42.901Z,102501.63
2024-02-03T13:29:13.160Z,102500.44
2024-02-03T13:31:42.744Z,102501.28
2024-02-03T13:34:16.632Z,102497.56
2024-02-03T13:36:49.517Z,102494.31
2024-02-03T13:39:19.488Z,102498.13
2024-02-03T13:41:48.870Z,102496.44
2024-02-03T13:44:18.287Z,102505.19
2024-02-03T13:46:48.373Z,102503.25
2024-02-03T13:49:17.671Z,102497.09
2024-02-03T13:51:51.145Z,102499.81
2024-02-03T13:54:20.947Z,102501.84
2024-02-03T13:56:50.789Z,102499.34
2024-02-03T13:59:20.145Z,102487.72
2024-02-03T14:01:49.614Z,102496.53
2024-02-03T14:04:18.959Z,102494.00
2024-02-03T14:06:48.713Z,102494.69
2024-02-03T14:09:18.141Z,102489.09
2024-02-03T14:11:54.289Z,102496.22
2024-02-03T14:14:27.010Z,102489.34
2024-02-03T14:16:56.833Z,102487.13
2024-02-03T14:19:26.290Z,102487.13
2024-02-03T14:21:56.528Z,102488.78
2024-02-03T14:24:26.007Z,102482.75
2024-02-03T14:26:55.443Z,102483.03
2024-02-03T14:29:24.795Z,102480.53
2024-02-03T14:31:54.212Z,102490.59
2024-02-03T14:34:23.654Z,102482.09
2024-02-03T14:36:53.282Z,102490.22
2024-02-03T14:39:22.684Z,102476.09
2024-02-03T14:41:52.789Z,102492.47
2024-02-03T14:44:22.279Z,102494.78
2024-02-03T14:46:51.892Z,102490.41
2024-02-03T14:49:22.679Z,102486.97
2024-02-03T14:51:53.036Z,102496.44
2024-02-03T14:54:22.819Z,102483.25
2024-02-03T14:56:52.279Z,102487.81
2024-02-03T14:59:21.624Z,102482.06
2024-02-03T15:01:51.023Z,102485.22
2024-02-03T15:04:20.510Z,102490.94
2024-02-03T15:06:50.051Z,102498.38
2024-02-03T15:09:19.495Z,102495.38
2024-02-03T15:11:48.877Z,102493.81
2024-02-03T15:14:18.295Z,102503.47
2024-02-03T15:16:47.701Z,102507.53
2024-02-03T15:19:17.196Z,102494.41
2024-02-03T15:21:46.742Z,102493.38
2024-02-03T15:24:16.312Z,102492.72
2024-02-03T15:26:45.788Z,102483.78
2024-02-03T15:29:15.575Z,102496.44
2024-02-03T15:31:45.067Z,102500.56
2024-02-03T15:34:14.634Z,102500.91
2024-02-03T15:36:44.153Z,102500.91
2024-02-03T15:39:13.868Z,102498.88
2024-02-03T15:41:43.104Z,102501.97
2024-02-03T15:44:13.282Z,102501.28
2024-02-03T15:46:45.616Z,102502.59
2024-02-03T15:49:17.085Z,102506.78
2024-02-03T15:51:47.213Z,102507.63
2024-02-03T15:54:17.378Z,102509.00
2024-02-03T15:56:48.059Z,102513.03
2024-02-03T15:59:17.731Z,102519.44
2024-02-03T16:01:47.634Z,102512.72
2024-02-03T16:04:17.308Z,102512.91
2024-02-03T16:06:46.932Z,102509.19
2024-02-03T16:09:16.366Z,102504.63
2024-02-03T16:11:46.177Z,102505.94
2024-02-03T16:14:16.217Z,102494.69
2024-02-03T16:16:45.969Z,102494.19
2024-02-03T16:19:19.443Z,102502.94
2024-02-03T16:21:49.318Z,102509.06
2024-02-03T16:24:18.804Z,102501.50
2024-02-03T16:26:48.269Z,102503.66
2024-02-03T16:29:22.634Z,102502.81
2024-02-03T16:31:53.037Z,102498.97
2024-02-03T16:34:22.756Z,102497.13
2024-02-03T16:36:52.232Z,102496.28
2024-02-03T16:39:30.304Z,102497.97
2024-02-03T16:42:00.201Z,102487.22
2024-02-03T16:44:30.007Z,102485.53
2024-02-03T16:47:14.837Z,102488.53
2024-02-03T16:49:44.578Z,102488.94
2024-02-03T16:52:24.306Z,102489.25
2024-02-03T16:54:53.663Z,102500.88
2024-02-03T16:57:24.314Z,102495.31
2024-02-03T16:59:53.792Z,102502.38
2024-02-03T17:02:25.140Z,102497.16
2024-02-03T17:04:57.858Z,102498.84
2024-02-03T17:07:27.552Z,102508.44
2024-02-03T17:09:57.253Z,102504.06
2024-02-03T17:12:26.697Z,102503.06
2024-02-03T17:14:56.079Z,102505.09
2024-02-03T17:17:25.387Z,102508.13
2024-02-03T17:19:55.782Z,102498.53
2024-02-03T17:22:27.122Z,102504.47
2024-02-03T17:24:56.839Z,102508.53
2024-02-03T17:27:26.418Z,102507.75
2024-02-03T17:29:55.918Z,102505.03
2024-02-03T17:32:25.762Z,102494.84
2024-02-03T17:34:55.537Z,102503.78
2024-02-03T17:37:25.899Z,102502.28
2024-02-03T17:39:55.321Z,102506.00
2024-02-03T17:42:24.832Z,102497.59
2024-02-03T17:44:54.178Z,102498.81
2024-02-03T17:47:24.163Z,102506.75
2024-02-03T17:49:53.572Z,102497.31
2024-02-03T17:52:23.033Z,102502.91
2024-02-03T17:54:52.504Z,102500.94
2024-02-03T17:57:27.717Z,102502.81
2024-02-03T17:59:57.118Z,102508.53
2024-02-03T18:02:26.485Z,102515.44
2024-02-03T18:04:56.764Z,102506.88
2024-02-03T18:07:27.400Z,102508.72
2024-02-03T18:09:56.803Z,102508.72
2024-02-03T18:12:26.220Z,102506.53
2024-02-03T18:14:55.822Z,102506.03
2024-02-03T18:17:25.271Z,102504.22
2024-02-03T18:19:55.955Z,102488.75
2024-02-03T18:22:25.478Z,102497.16
2024-02-03T18:24:54.982Z,102501.88
2024-02-03T18:27:24.420Z,102509.94
2024-02-03T18:29:53.855Z,102509.94
2024-02-03T18:32:23.208Z,102509.25
2024-02-03T18:34:52.710Z,102512.28
2024-02-03T18:37:22.141Z,102508.91
2024-02-03T18:39:54.042Z,102522.38
2024-02-03T18:42:25.696Z,102521.88
2024-02-03T18:44:55.085Z,102517.66
2024-02-03T18:47:24.456Z,102523.38
2024-02-03T18:49:53.800Z,102521.03
2024-02-03T18:52:23.183Z,102515.66
2024-02-03T18:54:52.614Z,102520.19
2024-02-03T18:57:22.088Z,102521.72
2024-02-03T18:59:51.351Z,102531.13
2024-02-03T19:02:20.737Z,102523.72
2024-02-03T19:04:50.092Z,102513.31
2024-02-03T19:07:19.523Z,102505.22
2024-02-03T19:09:48.978Z,102507.09
2024-02-03T19:12:18.599Z,102500.69
2024-02-03T19:14:48.643Z,102508.59
2024-02-03T19:17:18.047Z,102495.31
2024-02-03T19:19:47.502Z,102498.16
2024-02-03T19:22:21.764Z,102507.25
2024-02-03T19:24:53.049Z,102507.59
2024-02-03T19:27:22.592Z,102509.28
2024-02-03T19:29:51.923Z,102507.75
2024-02-03T19:32:21.226Z,102509.78
2024-02-03T19:34:50.621Z,102519.03
2024-02-03T19:37:20.245Z,102510.28
2024-02-03T19:39:49.819Z,102500.84
2024-02-03T19:42:19.180Z,102508.09
2024-02-03T19:44:48.494Z,102517.69
2024-02-03T19:47:17.881Z,102518.34
2024-02-03T19:49:48.077Z,102516.34
2024-02-03T19:52:17.636Z,102517.19
2024-02-03T19:54:47.061Z,102508.25
2024-02-03T19:57:16.484Z,102505.56
2024-02-03T19:59:46.186Z,102514.28
2024-02-03T20:02:15.714Z,102506.88
2024-02-03T20:04:45.387Z,102513.94
2024-02-03T20:07:16.046Z,102496.09
2024-02-03T20:09:45.651Z,102506.03
2024-02-03T20:12:15.090Z,102492.41
2024-02-03T20:14:44.447Z,102493.91
2024-02-03T20:17:13.759Z,102492.06
2024-02-03T20:19:43.213Z,102501.66
2024-02-03T20:22:14.773Z,102492.06
2024-02-03T20:24:44.405Z,102502.16
2024-02-03T20:27:13.868Z,102493.75
2024-02-03T20:29:46.282Z,102500.81
2024-02-03T20:32:16.112Z,102494.41
2024-02-03T20:34:45.462Z,102499.63
2024-02-03T20:37:15.006Z,102489.38
2024-02-03T20:39:47.645Z,102492.06
2024-02-03T20:42:20.550Z,102480.09
2024-02-03T20:44:49.934Z,102485.66
2024-02-03T20:47:19.318Z,102483.81
2024-02-03T20:49:48.904Z,102490.38
2024-02-03T20:52:18.346Z,102495.75
2024-02-03T20:54:47.886Z,102487.16
2024-02-03T20:57:18.471Z,102483.63
2024-02-03T20:59:49.904Z,102483.09
2024-02-03T21:02:19.273Z,102477.41
2024-02-03T21:04:48.980Z,102461.25
2024-02-03T21:07:20.292Z,102469.16
2024-02-03T21:09:49.939Z,102467.47
2024-02-03T21:12:19.325Z,102464.94
2024-02-03T21:14:48.691Z,102458.22
2024-02-03T21:17:18.089Z,102448.94
2024-02-03T21:19:47.948Z,102457.03
2024-02-03T21:22:17.457Z,102461.22
2024-02-03T21:24:47.028Z,102459.88
2024-02-03T21:27:16.438Z,102452.31
2024-02-03T21:29:46.720Z,102452.13
2024-02-03T21:32:16.037Z,102460.72
2024-02-03T21:34:48.030Z,102451.13
2024-02-03T21:37:19.037Z,102448.25
2024-02-03T21:39:50.325Z,102448.91
2024-02-03T21:42:20.522Z,102452.09
2024-02-03T21:44:49.890Z,102448.56
2024-02-03T21:47:19.178Z,102447.56
2024-02-03T21:49:48.933Z,102434.72
2024-02-03T21:52:22.659Z,102421.25
2024-02-03T21:54:53.714Z,102423.94
2024-02-03T21:57:23.171Z,102425.16
2024-02-03T21:59:52.677Z,102409.69
2024-02-03T22:02:22.040Z,102410.84
2024-02-03T22:04:51.658Z,102406.47
2024-02-03T22:07:21.254Z,102413.41
2024-02-03T22:09:50.763Z,102415.91
2024-02-03T22:12:20.231Z,102418.09
2024-02-03T22:14:49.657Z,102423.31
2024-02-03T22:17:19.036Z,102409.81
2024-02-03T22:19:48.535Z,102406.94
2024-02-03T22:22:17.970Z,102405.25
2024-02-03T22:24:47.410Z,102402.75
2024-02-03T22:27:17.265Z,102411.97
2024-02-03T22:29:46.850Z,102407.66
2024-02-03T22:32:16.495Z,102399.56
2024-02-03T22:34:46.927Z,102391.16
2024-02-03T22:37:16.752Z,102401.09
2024-02-03T22:39:47.856Z,102393.84
2024-02-03T22:42:17.420Z,102399.06
2024-02-03T22:44:46.802Z,102388.63
2024-02-03T22:47:16.444Z,102393.00
2024-02-03T22:49:45.972Z,102388.97
2024-02-03T22:52:15.372Z,102380.88
2024-02-03T22:54:45.094Z,102369.09
2024-02-03T22:57:14.534Z,102373.47
2024-02-03T22:59:43.954Z,102371.13
2024-02-03T23:02:13.707Z,102367.72
2024-02-03T23:04:43.264Z,102367.06
2024-02-03T23:07:13.180Z,102361.50
2024-02-03T23:09:42.767Z,102361.34
2024-02-03T23:12:12.363Z,102361.34
2024-02-03T23:14:41.823Z,102365.97
2024-02-03T23:17:11.256Z,102373.22
2024-02-03T23:19:40.840Z,102367.00
2024-02-03T23:22:10.430Z,102371.03
2024-02-03T23:24:40.222Z,102371.03
2024-02-03T23:27:09.679Z,102382.81
2024-02-03T23:29:39.100Z,102385.16
2024-02-03T23:32:08.647Z,102380.59
2024-02-03T23:34:38.173Z,102369.16
2024-02-03T23:37:07.577Z,102369.00
2024-02-03T23:39:37.003Z,102367.78
2024-02-03T23:42:06.560Z,102368.63
2024-02-03T23:44:36.623Z,102374.88
2024-02-03T23:47:06.257Z,102369.47
2024-02-03T23:49:35.660Z,102377.38
2024-02-03T23:52:05.193Z,102385.47
2024-02-03T23:54:34.800Z,102384.44
2024-02-03T23:57:04.279Z,102391.88
2024-02-03T23:59:33.663Z,102395.22
